[source: ADDS]
METAR
EDVE 061920Z 29005KT 9999 SCT010 OVC034 03/02 Q1015

TAF EDVE 061700Z 0618/0621 25005KT 9999 FEW009 SCT020 TEMPO 0618/0621 3000 BR BKN007 EDDV 061920Z AUTO 25003KT 8000 FEW010 SCT029 02/01 Q1016 BECMG 1500 BCFG

TAF EDDV 061700Z 0618/0718 26004KT 9999 BKN015 TEMPO 0618/0709 4500 BR BKN008 PROB30 TEMPO 0619/0622 0500 FZFG BKN001 BECMG 0622/0701 BKN014 TEMPO 0622/0710 2500 -RADZ BKN004 PROB30 TEMPO 0710/0716 30015G25KT 3500 SHRAGS BKN013CB TEMPO 0716/0718 2500 BR BKN008 ETHS 061920Z 25004KT 9999 FEW023 BKN028 01/00 Q1015 BLACKBLU

TAF ETHS 061415Z 0615/0624 30006KT 6000 NSW SCT005 BKN010 BECMG 0615/0617 26005KT 9999 NSW SCT010 BKN030 TEMPO 0620/0624 28005KT 2000 -SHRASN BKN003 BKN010 EDBC 061920Z AUTO 28007KT 9999 // SCT007/// OVC025/// 02/01 Q1015

ETHC 061920Z 21002KT 7000 SCT013 BKN030 01/01 Q1015 WHT

TAF AMD ETHC 061527Z 0615/0624 26005KT 9000 NSW SCT012 BKN020 TEMPO 0615/0624 23005KT 3000 BR BKN004 EDVK 061920Z AUTO 25004KT 9999 // BKN024/// BKN030/// 02/00 Q1016

TAF EDVK 061700Z 0618/0703 27006KT 9000 SCT004 OVC015 TEMPO 0618/0703 2500 -DZ BKN003
TAF
TAF EDVE 061700Z 0618/0621 25005KT 9999 FEW009 SCT020 TEMPO 0618/0621 3000 BR BKN007

TAF EDDV 061700Z 0618/0718 26004KT 9999 BKN015 TEMPO 0618/0709 4500 BR BKN008 PROB30 TEMPO 0619/0622 0500 FZFG BKN001 BECMG 0622/0701 BKN014 TEMPO 0622/0710 2500 -RADZ BKN004 PROB30 TEMPO 0710/0716 30015G25KT 3500 SHRAGS BKN013CB TEMPO 0716/0718 2500 BR BKN008

TAF ETHS 061415Z 0615/0624 30006KT 6000 NSW SCT005 BKN010 BECMG 0615/0617 26005KT 9999 NSW SCT010 BKN030 TEMPO 0620/0624 28005KT 2000 -SHRASN BKN003 BKN010

TAF AMD ETHC 061527Z 0615/0624 26005KT 9000 NSW SCT012 BKN020 TEMPO 0615/0624 23005KT 3000 BR BKN004

TAF EDVK 061700Z 0618/0703 27006KT 9000 SCT004 OVC015 TEMPO 0618/0703 2500 -DZ BKN003

SR / SS: 07:11 / 15:06 UTC (EDVE 2022-12-06)
Und wieder einer ohne Lehrer unterwegs- Gratulation Daniel ! (26.10.) +++ Norman hat heute seine Praktische Prüfung bestanden. Herzlichen Glückwunsch und Always Happy Landings (28.10) +++ Glückwunsch Karsten! Die Schülerakte wurde soeben geschlossen :-) Always happy Landings (12.9.) +++ Hendrik ist heute seine ersten Solo-Platzrunden geflogen. Herzlichen Glückwünsch und always happy landings (3.9.) +++ Wir begrüßen Richard als neues Mitglied der FFG und wünschen eine erfolgreiche Ausbildung! (1.9.) +++ Norman hat die Theoretische Prüfung bestanden. Herzlichen Glückwunsch (31.8.) +++ Vincent hat seinen ersten Alleinflug absolviert! Herzlichen Glückwunsch und weiterhin Happy Landings! (26.08.) +++ Wir heißen Clemens E. und Clemens H. als neue Flugschüler willkommen und wünschen eine erfolgreiche Ausbildung! (26.08.) +++ Herzlichen Glückwünsch zum ersten Solo, Luis und always happy landings! (22.08.) +++ Die FFG hat ein neues Vereinsmitglied und einen weiteren Flugschüler. Herzlich Willkommen, Stefan ! (7.8.) +++ Vom „Fußgänger“ zum Luftfahrzeugführer! Lieber Carsten, herzlichen Glückwunsch zur bestandenen PPL-Prüfung! (19.7.) +++ Simon hat seine Praktische Prüfung bestanden! (12.07.) Herzlichen Glückwunsch und Always Happy Landings +++ Wir begrüßen Stefan S. als neues Mitglied der FFG! - Herzlichen Glückwunsch & Always Happy Landings! (06.07.) +++ (Falscheintrag ?? hr) Die FFG hat ein neues Vereinsmitglied und die Flugschule einen neuen Schüler: Herzlich Willkommen, Robert, und viel Spaß und Erfolg bei deiner Ausbildung. (2.7.) +++ Patrik hat heute sein erstes Solo geflogen - Herzlichen Glückwunsch & Always Happy Landings! (30.6.) +++ Herzlichen Glückwunsch Thiago zur erfolgreichen Prüfung (15.06.) & Always Happy Landings +++ Herzlichen Glückwunsch zu bestandenen PPL(A) Prüfung, Fabian - always happy landings ! (19.5.) +++ Stefan hat die Prüfung für die Instrumentenflugberechtigung bestanden! Gratulation und weiterhin Happy Landings! . (04.05.) +++ Herzlich Willkommen bei der FFG, Eike, und viel Spaß und Erfolg bei deiner Ausbildung. (22.04.) +++ Wir heißen Daniel H. als neuen Flugschüler willkommen und wünschen eine erfolgreiche Ausbildung! (01.04.) +++ Gratulation auch an Daniel P., der heute (31.03.) seinen ersten Alleinflug absolviert hat! Herzlichen Glückwunsch und weiterhin Happy Landings! +++ Norman hat am 15.03. seinen ersten Alleinflug absolviert! Herzlichen Glückwunsch und weiterhin Happy Landings! +++ Daniel hat heute (9.3.) seine Theoretische Prüfung bestanden! Herzlichen Glückwunsch und viel Spaß bei den nächsten Ausbildungsschritten +++ Marek hat heute (1.3.) seine Praktische Prüfung bestanden -Herzlichen Glückwunsch und Always Happy Landings +++ Herzlich Willkommen, Luis. Viel Spaß und Erfolg bei deiner Ausbildung. +++ Herzlich Willkommen, Maximilian. Viel Spaß und Erfolg bei deiner Ausbildung. +++ Simon hat heute (9.2.) seine Theoretische Prüfung bestanden - Herzlichen Glückwunsch +++ Paul hat heute (22. Nov) seine PPL-Prüfung bestanden! Herzlichen Glückwunsch und Always Happy Landings! +++ Willkommen bei der FFG, Vincent. Viel Spaß und Erfolg bei deiner Ausbildung! +++ Willkommen bei der FFG, Doris. Viel Spaß und Erfolg bei deiner Ausbildung! +++ Holger hat seine PPL-Prüfung bestanden! Gratulation und weiterhin Happy Landings! +++ Micha hat seine PPL-Prüfung bestanden! Gratulation und weiterhin Happy Landings! +++ Simon hat seinen ersten Alleinflug absolviert! Herzlichen Glückwunsch und weiterhin Happy Landings! +++ Wir heißen Torben als neuen Flugschüler willkommen und wünschen eine erfolgreiche Ausbildung! +++ Wir heißen Michel, Norman und Philip als neue Flugschüler willkommen und wünschen viel Spaß und Erfolg bei eurer Ausbildung! +++

wenig -> mittel -> viel

Professionelle Piloten arbeiten mit Checkliste
Ausdrucken und abarbeiten!

Weiterlesen ...

 Zugang zur DFS. Auf dem FFG-Account sind alle erforderlichen Daten unserer Maschinen hinterlegt.

DFS Login

Hier gibt es die AIP mit allen erforderlichen Karten die im Abo der FFG liegen zum Download für unsere Mitglieder.

Charts Zugang
Letztes NOTAM EDVE
von 05.12.2022 1250Z bis 05.03.2023 1250Z
LIMITED PARKING SPACE ON APRON DUE TO WIP. ACFT UP TO 5699KG MTOM PARKING ON EASTERN PART OF APRON ONLY. NON-SCHENGEN ARRIVALS PLS C [more]

Letztes NOTAM EDBC
von 01.12.2022 0716Z bis 01.03.2023 2359Z
COCHSTEDT DME COD CH80Y (113.35MHZ) U/S.

Letztes NOTAM EDVM
von 16.11.2022 1529Z bis 31.01.2023 1605Z
APN 2/3 CLSD FOR PARKING, AVBL ONLY FOR TAXI TO HANGAR.

Letztes NOTAM EDOV
von 10.10.2022 0600Z bis 31.12.2022 2359Z
GRASS RWY 08/26 CLSD DUE TO WIP.

Letztes NOTAM EDVI
von 19.12.2022 0000Z bis 28.02.2023 2359Z
AD AVBL PPR, REQ VIA TEL. +49(0)163-5744126 OR +49(0)5271-6999060.

Letztes NOTAM EDDV
von 02.12.2022 1818Z bis 06.01.2023 1700Z
TDZ RWY 09L SLIPPERY WHEN WET.

Letztes NOTAM EDVK
von 24.12.2022 0630Z bis 01.01.2023 1900Z
HOURS OF OPERATION CHANGED: DEC 24: 0630-1300,OTHER TIMES PPR.PPR REQ HAS TO BE SEND UNTIL DEC 24 1100 DEC 25: AD PPR/PPR REQ AT LEAST [more]